createdAt,value
2018-07-02T00:00:11.329Z,17.56
2018-07-02T00:02:39.746Z,17.75
2018-07-02T00:05:08.293Z,17.73
2018-07-02T00:07:36.521Z,17.50
2018-07-02T00:10:04.879Z,17.63
2018-07-02T00:12:33.106Z,17.48
2018-07-02T00:15:01.371Z,17.21
2018-07-02T00:17:29.611Z,17.27
2018-07-02T00:19:57.909Z,17.10
2018-07-02T00:22:26.188Z,17.11
2018-07-02T00:24:54.404Z,16.85
2018-07-02T00:27:22.657Z,16.80
2018-07-02T00:29:50.876Z,16.64
2018-07-02T00:32:19.096Z,16.77
2018-07-02T00:34:47.316Z,16.74
2018-07-02T00:37:15.571Z,16.64
2018-07-02T00:39:43.795Z,16.63
2018-07-02T00:42:12.015Z,16.71
2018-07-02T00:44:40.253Z,16.58
2018-07-02T00:47:08.434Z,16.54
2018-07-02T00:49:36.621Z,16.62
2018-07-02T00:52:04.802Z,16.67
2018-07-02T00:54:33.021Z,16.79
2018-07-02T00:57:01.234Z,16.46
2018-07-02T00:59:29.552Z,16.68
2018-07-02T01:01:59.237Z,16.62
2018-07-02T01:04:27.552Z,16.72
2018-07-02T01:06:56.456Z,16.56
2018-07-02T01:09:24.665Z,16.33
2018-07-02T01:11:52.872Z,16.38
2018-07-02T01:14:21.063Z,16.60
2018-07-02T01:16:49.282Z,16.56
2018-07-02T01:19:17.627Z,16.39
2018-07-02T01:21:45.851Z,16.49
2018-07-02T01:24:14.114Z,16.19
2018-07-02T01:26:42.350Z,16.17
2018-07-02T01:29:10.609Z,16.06
2018-07-02T01:31:38.838Z,15.88
2018-07-02T01:34:07.486Z,15.65
2018-07-02T01:36:35.730Z,15.59
2018-07-02T01:39:04.490Z,15.66
2018-07-02T01:41:32.688Z,15.74
2018-07-02T01:44:00.967Z,15.35
2018-07-02T01:46:29.158Z,15.68
2018-07-02T01:48:57.461Z,15.85
2018-07-02T01:51:25.819Z,16.09
2018-07-02T01:53:54.063Z,16.03
2018-07-02T01:56:22.269Z,15.83
2018-07-02T01:58:50.437Z,15.55
2018-07-02T02:01:18.672Z,15.46
2018-07-02T02:03:46.860Z,15.47
2018-07-02T02:06:15.108Z,15.62
2018-07-02T02:08:43.329Z,15.63
2018-07-02T02:11:11.731Z,15.70
2018-07-02T02:13:39.989Z,15.66
2018-07-02T02:16:08.214Z,15.48
2018-07-02T02:18:36.480Z,15.70
2018-07-02T02:21:04.735Z,15.78
2018-07-02T02:23:32.945Z,15.67
2018-07-02T02:26:01.116Z,15.54
2018-07-02T02:28:29.338Z,15.14
2018-07-02T02:30:57.600Z,14.57
2018-07-02T02:33:25.860Z,14.47
2018-07-02T02:35:54.126Z,14.88
2018-07-02T02:38:22.463Z,15.09
2018-07-02T02:40:50.636Z,15.38
2018-07-02T02:43:18.813Z,15.52
2018-07-02T02:45:47.037Z,15.24
2018-07-02T02:48:15.319Z,15.20
2018-07-02T02:50:43.706Z,14.97
2018-07-02T02:53:11.961Z,15.36
2018-07-02T02:55:40.254Z,14.68
2018-07-02T02:58:08.432Z,14.43
2018-07-02T03:00:36.609Z,14.22
2018-07-02T03:03:04.902Z,14.09
2018-07-02T03:05:33.089Z,14.16
2018-07-02T03:08:01.340Z,14.07
2018-07-02T03:10:29.574Z,14.47
2018-07-02T03:12:57.852Z,14.78
2018-07-02T03:15:26.112Z,14.04
2018-07-02T03:17:54.423Z,13.99
2018-07-02T03:20:24.068Z,13.79
2018-07-02T03:22:52.255Z,13.65
2018-07-02T03:25:21.144Z,13.53
2018-07-02T03:27:49.410Z,13.59
2018-07-02T03:30:18.031Z,13.58
2018-07-02T03:32:46.216Z,13.50
2018-07-02T03:35:14.420Z,13.42
2018-07-02T03:37:42.784Z,13.50
2018-07-02T03:40:11.045Z,13.30
2018-07-02T03:42:39.423Z,14.31
2018-07-02T03:45:07.678Z,14.01
2018-07-02T03:47:35.857Z,14.17
2018-07-02T03:50:04.090Z,13.78
2018-07-02T03:52:32.285Z,18.40
2018-07-02T03:55:00.475Z,20.98
2018-07-02T03:57:28.660Z,21.60
2018-07-02T03:59:56.893Z,22.52
2018-07-02T04:02:25.258Z,22.73
2018-07-02T04:04:53.496Z,23.42
2018-07-02T04:07:21.708Z,23.40
2018-07-02T04:09:49.928Z,24.00
2018-07-02T04:12:18.167Z,25.57
2018-07-02T04:14:46.377Z,26.22
2018-07-02T04:17:14.592Z,25.89
2018-07-02T04:19:42.818Z,25.58
2018-07-02T04:22:11.043Z,22.61
2018-07-02T04:24:39.269Z,19.15
2018-07-02T04:27:07.453Z,18.22
2018-07-02T04:29:35.659Z,18.03
2018-07-02T04:32:03.875Z,17.48
2018-07-02T04:34:32.099Z,16.90
2018-07-02T04:37:00.295Z,17.02
2018-07-02T04:39:28.504Z,17.23
2018-07-02T04:41:56.781Z,17.24
2018-07-02T04:44:24.989Z,16.62
2018-07-02T04:46:53.337Z,16.57
2018-07-02T04:49:21.547Z,16.42
2018-07-02T04:51:49.808Z,16.35
2018-07-02T04:54:18.077Z,16.36
2018-07-02T04:56:46.278Z,16.34
2018-07-02T04:59:14.667Z,16.13
2018-07-02T05:01:42.872Z,15.89
2018-07-02T05:04:11.085Z,16.20
2018-07-02T05:06:39.811Z,16.20
2018-07-02T05:09:08.564Z,16.30
2018-07-02T05:11:36.906Z,15.99
2018-07-02T05:14:05.092Z,16.04
2018-07-02T05:16:33.309Z,16.08
2018-07-02T05:19:01.495Z,15.86
2018-07-02T05:21:29.699Z,16.34
2018-07-02T05:23:57.926Z,16.40
2018-07-02T05:26:26.546Z,16.20
2018-07-02T05:28:54.719Z,16.22
2018-07-02T05:31:23.200Z,16.12
2018-07-02T05:33:51.422Z,16.36
2018-07-02T05:36:20.093Z,16.51
2018-07-02T05:38:48.384Z,16.33
2018-07-02T05:41:16.575Z,16.59
2018-07-02T05:44:35.312Z,16.48
2018-07-02T05:47:03.525Z,16.29
2018-07-02T05:49:55.304Z,16.47
2018-07-02T05:52:23.595Z,16.47
2018-07-02T05:54:51.889Z,16.52
2018-07-02T05:57:20.263Z,16.51
2018-07-02T05:59:48.527Z,16.56
2018-07-02T06:02:16.701Z,16.60
2018-07-02T06:04:44.903Z,16.66
2018-07-02T06:07:13.096Z,16.65
2018-07-02T06:09:41.331Z,16.73
2018-07-02T06:12:09.571Z,16.63
2018-07-02T06:14:37.841Z,16.66
2018-07-02T06:17:06.171Z,16.73
2018-07-02T06:19:34.449Z,16.81
2018-07-02T06:22:02.661Z,16.87
2018-07-02T06:24:30.898Z,16.68
2018-07-02T06:26:59.073Z,16.94
2018-07-02T06:29:27.327Z,16.90
2018-07-02T06:31:55.578Z,17.04
2018-07-02T06:34:23.826Z,16.99
2018-07-02T06:36:52.126Z,16.96
2018-07-02T06:39:20.377Z,17.05
2018-07-02T06:41:48.589Z,17.16
2018-07-02T06:44:16.748Z,17.13
2018-07-02T06:46:45.029Z,17.13
2018-07-02T06:49:13.260Z,17.14
2018-07-02T06:51:41.519Z,17.29
2018-07-02T06:54:12.439Z,17.29
2018-07-02T06:56:47.221Z,17.31
2018-07-02T06:59:18.270Z,17.28
2018-07-02T07:02:07.059Z,17.26
2018-07-02T07:04:59.125Z,17.39
2018-07-02T07:07:27.333Z,17.47
2018-07-02T07:09:55.528Z,17.45
2018-07-02T07:12:23.757Z,17.52
2018-07-02T07:14:51.996Z,17.72
2018-07-02T07:17:20.198Z,17.73
2018-07-02T07:19:48.367Z,17.71
2018-07-02T07:22:16.576Z,17.69
2018-07-02T07:24:44.725Z,17.75
2018-07-02T07:27:12.950Z,17.76
2018-07-02T07:29:41.162Z,17.71
2018-07-02T07:32:09.412Z,17.86
2018-07-02T07:34:37.597Z,18.00
2018-07-02T07:37:05.814Z,18.07
2018-07-02T07:39:34.051Z,18.24
2018-07-02T07:42:02.225Z,17.98
2018-07-02T07:44:30.486Z,17.96
2018-07-02T07:46:59.065Z,17.91
2018-07-02T07:49:27.372Z,18.02
2018-07-02T07:51:56.156Z,18.14
2018-07-02T07:54:24.366Z,18.34
2018-07-02T07:56:52.603Z,18.31
2018-07-02T07:59:20.798Z,18.38
2018-07-02T08:01:49.024Z,18.57
2018-07-02T08:04:17.237Z,18.92
2018-07-02T08:06:45.533Z,18.68
2018-07-02T08:09:14.601Z,18.46
2018-07-02T08:11:43.194Z,18.72
2018-07-02T08:14:11.401Z,18.79
2018-07-02T08:16:40.439Z,19.26
2018-07-02T08:19:08.664Z,19.18
2018-07-02T08:21:36.938Z,19.29
2018-07-02T08:24:05.214Z,18.82
2018-07-02T08:26:33.422Z,18.82
2018-07-02T08:29:01.633Z,18.81
2018-07-02T08:31:29.962Z,18.86
2018-07-02T08:33:58.284Z,19.49
2018-07-02T08:36:26.494Z,19.43
2018-07-02T08:38:54.678Z,19.46
2018-07-02T08:41:22.989Z,19.37
2018-07-02T08:43:51.212Z,19.41
2018-07-02T08:46:19.424Z,19.44
2018-07-02T08:48:47.704Z,19.26
2018-07-02T08:51:15.997Z,19.47
2018-07-02T08:53:44.305Z,19.65
2018-07-02T08:56:12.498Z,19.83
2018-07-02T08:58:40.763Z,19.87
2018-07-02T09:01:08.944Z,19.63
2018-07-02T09:03:37.130Z,19.52
2018-07-02T09:06:05.615Z,19.60
2018-07-02T09:08:34.096Z,19.74
2018-07-02T09:11:02.318Z,19.73
2018-07-02T09:13:30.521Z,19.81
2018-07-02T09:15:58.734Z,19.71
2018-07-02T09:18:26.898Z,19.67
2018-07-02T09:20:55.089Z,19.77
2018-07-02T09:23:23.314Z,19.70
2018-07-02T09:25:51.498Z,19.67
2018-07-02T09:28:19.685Z,20.22
2018-07-02T09:30:48.005Z,20.10
2018-07-02T09:33:16.269Z,20.18
2018-07-02T09:35:44.527Z,19.86
2018-07-02T09:38:12.723Z,20.04
2018-07-02T09:40:40.948Z,20.07
2018-07-02T09:43:09.221Z,19.99
2018-07-02T09:45:37.973Z,20.07
2018-07-02T09:48:06.144Z,20.48
2018-07-02T09:50:34.310Z,20.15
2018-07-02T09:53:02.573Z,20.15
2018-07-02T09:55:30.809Z,20.31
2018-07-02T09:57:59.108Z,20.59
2018-07-02T10:00:27.330Z,20.30
2018-07-02T10:02:55.548Z,20.33
2018-07-02T10:05:23.822Z,20.49
2018-07-02T10:07:52.004Z,20.44
2018-07-02T10:10:20.170Z,20.38
2018-07-02T10:12:48.376Z,20.52
2018-07-02T10:15:16.597Z,20.51
2018-07-02T10:17:44.763Z,21.19
2018-07-02T10:20:13.095Z,20.92
2018-07-02T10:22:41.252Z,20.46
2018-07-02T10:25:09.441Z,20.91
2018-07-02T10:27:37.737Z,20.95
2018-07-02T10:30:05.912Z,21.08
2018-07-02T10:32:34.198Z,20.81
2018-07-02T10:35:02.370Z,20.66
2018-07-02T10:37:30.562Z,21.05
2018-07-02T10:39:58.778Z,20.86
2018-07-02T10:42:27.032Z,20.74
2018-07-02T10:44:55.297Z,21.13
2018-07-02T10:47:23.649Z,21.32
2018-07-02T10:49:52.714Z,20.74
2018-07-02T10:52:20.981Z,21.06
2018-07-02T10:54:49.333Z,21.14
2018-07-02T10:57:17.533Z,20.87
2018-07-02T10:59:45.936Z,20.86
2018-07-02T11:02:14.141Z,20.63
2018-07-02T11:04:42.419Z,20.86
2018-07-02T11:07:10.624Z,21.21
2018-07-02T11:09:38.878Z,21.45
2018-07-02T11:12:07.074Z,21.55
2018-07-02T11:14:35.265Z,21.96
2018-07-02T11:17:03.461Z,21.90
2018-07-02T11:19:31.807Z,21.74
2018-07-02T11:22:00.099Z,21.49
2018-07-02T11:24:28.398Z,21.26
2018-07-02T11:26:56.630Z,21.24
2018-07-02T11:29:24.842Z,21.67
2018-07-02T11:31:53.109Z,21.43
2018-07-02T11:34:22.175Z,21.58
2018-07-02T11:37:00.100Z,21.58
2018-07-02T11:39:39.280Z,22.00
2018-07-02T11:42:21.321Z,22.08
2018-07-02T11:44:49.498Z,21.76
2018-07-02T11:47:17.720Z,21.84
2018-07-02T11:49:45.956Z,21.80
2018-07-02T11:52:14.176Z,21.99
2018-07-02T11:54:42.571Z,21.97
2018-07-02T11:57:10.800Z,22.02
2018-07-02T11:59:38.980Z,21.97
2018-07-02T12:02:07.148Z,22.15
2018-07-02T12:04:35.339Z,22.14
2018-07-02T12:07:03.610Z,22.09
2018-07-02T12:09:31.822Z,22.35
2018-07-02T12:12:00.090Z,22.33
2018-07-02T12:14:28.350Z,22.60
2018-07-02T12:16:56.528Z,22.56
2018-07-02T12:19:24.742Z,22.48
2018-07-02T12:21:52.928Z,22.41
2018-07-02T12:24:21.157Z,22.50
2018-07-02T12:26:49.455Z,22.56
2018-07-02T12:29:17.801Z,22.46
2018-07-02T12:31:46.123Z,22.30
2018-07-02T12:34:14.350Z,22.75
2018-07-02T12:36:42.525Z,22.63
2018-07-02T12:39:12.761Z,22.65
2018-07-02T12:41:42.728Z,22.66
2018-07-02T12:44:12.533Z,22.75
2018-07-02T12:46:40.758Z,23.12
2018-07-02T12:49:08.988Z,23.29
2018-07-02T12:51:37.375Z,23.00
2018-07-02T12:54:05.626Z,23.19
2018-07-02T12:56:33.891Z,23.04
2018-07-02T12:59:02.114Z,22.95
2018-07-02T13:01:30.300Z,23.42
2018-07-02T13:03:58.522Z,23.18
2018-07-02T13:06:27.478Z,22.84
2018-07-02T13:08:55.685Z,22.77
2018-07-02T13:11:23.908Z,22.65
2018-07-02T13:13:52.192Z,23.16
2018-07-02T13:16:20.362Z,23.29
2018-07-02T13:18:48.561Z,23.48
2018-07-02T13:21:16.760Z,23.88
2018-07-02T13:23:44.939Z,24.06
2018-07-02T13:26:13.223Z,24.35
2018-07-02T13:28:41.471Z,24.55
2018-07-02T13:31:09.758Z,23.73
2018-07-02T13:33:38.043Z,23.29
2018-07-02T13:36:06.997Z,23.18
2018-07-02T13:38:35.356Z,23.68
2018-07-02T13:41:03.846Z,23.59
2018-07-02T13:43:32.050Z,23.74
2018-07-02T13:46:00.316Z,23.73
2018-07-02T13:48:28.548Z,24.15
2018-07-02T13:50:56.752Z,24.15
2018-07-02T13:53:24.964Z,24.31
2018-07-02T13:55:53.154Z,23.96
2018-07-02T13:58:21.425Z,23.65
2018-07-02T14:00:50.605Z,23.49
2018-07-02T14:03:18.877Z,24.00
2018-07-02T14:05:47.062Z,24.14
2018-07-02T14:08:15.267Z,23.74
2018-07-02T14:10:43.562Z,23.90
2018-07-02T14:13:11.871Z,24.02
2018-07-02T14:15:40.151Z,24.12
2018-07-02T14:18:08.422Z,24.02
2018-07-02T14:20:36.601Z,24.03
2018-07-02T14:23:04.849Z,24.26
2018-07-02T14:25:34.934Z,24.53
2018-07-02T14:30:48.259Z,24.07
2018-07-02T14:33:16.522Z,24.42
2018-07-02T14:35:44.721Z,24.47
2018-07-02T14:38:12.922Z,24.39
2018-07-02T14:40:41.221Z,24.35
2018-07-02T14:43:09.448Z,24.46
2018-07-02T14:45:37.876Z,24.66
2018-07-02T14:48:06.054Z,24.65
2018-07-02T14:50:34.288Z,24.66
2018-07-02T14:53:02.491Z,24.80
2018-07-02T14:55:30.722Z,24.62
2018-07-02T14:57:58.925Z,24.77
2018-07-02T15:00:27.156Z,24.75
2018-07-02T15:02:55.376Z,24.78
2018-07-02T15:05:23.725Z,24.94
2018-07-02T15:07:51.954Z,24.90
2018-07-02T15:10:20.179Z,24.97
2018-07-02T15:12:48.463Z,24.77
2018-07-02T15:15:16.680Z,24.87
2018-07-02T15:17:44.904Z,24.92
2018-07-02T15:20:13.151Z,25.06
2018-07-02T15:22:41.417Z,25.29
2018-07-02T15:25:09.627Z,25.25
2018-07-02T15:27:37.995Z,25.19
2018-07-02T15:30:06.319Z,25.21
2018-07-02T15:32:34.720Z,25.23
2018-07-02T15:35:03.065Z,25.17
2018-07-02T15:37:31.482Z,25.08
2018-07-02T15:39:59.714Z,25.14
2018-07-02T15:42:27.938Z,25.34
2018-07-02T15:44:56.165Z,25.39
2018-07-02T15:47:24.476Z,25.38
2018-07-02T15:49:52.668Z,25.63
2018-07-02T15:52:20.843Z,25.32
2018-07-02T15:54:49.091Z,25.34
2018-07-02T15:57:17.873Z,25.32
2018-07-02T15:59:46.125Z,25.67
2018-07-02T16:02:14.395Z,25.49
2018-07-02T16:04:42.621Z,25.55
2018-07-02T16:07:10.822Z,25.61
2018-07-02T16:09:39.567Z,25.51
2018-07-02T16:12:07.878Z,25.60
2018-07-02T16:14:36.508Z,25.67
2018-07-02T16:17:04.768Z,25.60
2018-07-02T16:19:33.917Z,25.54
2018-07-02T16:22:02.435Z,25.47
2018-07-02T16:24:30.593Z,25.55
2018-07-02T16:26:58.836Z,25.12
2018-07-02T16:29:27.045Z,25.53
2018-07-02T16:31:55.333Z,25.45
2018-07-02T16:34:23.718Z,25.59
2018-07-02T16:36:51.965Z,25.59
2018-07-02T16:39:20.761Z,25.65
2018-07-02T16:41:49.040Z,26.00
2018-07-02T16:44:17.265Z,25.94
2018-07-02T16:46:45.558Z,25.92
2018-07-02T16:49:13.752Z,25.97
2018-07-02T16:51:42.083Z,26.10
2018-07-02T16:54:10.352Z,25.92
2018-07-02T16:56:38.515Z,26.06
2018-07-02T16:59:06.775Z,26.03
2018-07-02T17:01:35.039Z,25.81
2018-07-02T17:04:03.259Z,25.93
2018-07-02T17:06:31.469Z,25.93
2018-07-02T17:08:59.757Z,25.99
2018-07-02T17:11:28.061Z,26.05
2018-07-02T17:13:56.297Z,25.85
2018-07-02T17:16:24.516Z,26.06
2018-07-02T17:18:52.720Z,26.03
2018-07-02T17:21:21.023Z,25.95
2018-07-02T17:23:49.310Z,25.79
2018-07-02T17:26:17.648Z,25.87
2018-07-02T17:28:45.963Z,25.80
2018-07-02T17:31:14.260Z,25.51
2018-07-02T17:33:42.508Z,25.77
2018-07-02T17:36:10.697Z,25.45
2018-07-02T17:38:38.913Z,25.63
2018-07-02T17:41:07.151Z,25.56
2018-07-02T17:43:35.404Z,25.56
2018-07-02T17:46:03.645Z,25.72
2018-07-02T17:48:31.852Z,25.52
2018-07-02T17:51:00.119Z,25.18
2018-07-02T17:53:28.440Z,25.39
2018-07-02T17:55:56.649Z,25.58
2018-07-02T17:58:24.824Z,25.68
2018-07-02T18:00:53.080Z,25.45
2018-07-02T18:03:23.755Z,25.41
2018-07-02T18:05:52.049Z,25.33
2018-07-02T18:08:20.332Z,25.22
2018-07-02T18:10:48.549Z,25.26
2018-07-02T18:13:17.359Z,25.24
2018-07-02T18:15:45.880Z,25.28
2018-07-02T18:18:15.052Z,24.88
2018-07-02T18:20:43.509Z,25.02
2018-07-02T18:23:12.168Z,24.98
2018-07-02T18:25:41.131Z,25.21
2018-07-02T18:28:09.704Z,25.09
2018-07-02T18:30:38.516Z,24.88
2018-07-02T18:33:07.304Z,24.93
2018-07-02T18:35:36.033Z,24.80
2018-07-02T18:38:04.294Z,24.65
2018-07-02T18:40:32.527Z,24.83
2018-07-02T18:43:00.946Z,24.45
2018-07-02T18:45:29.196Z,24.51
2018-07-02T18:47:57.639Z,24.33
2018-07-02T18:50:26.456Z,24.34
2018-07-02T18:52:54.707Z,24.49
2018-07-02T18:55:23.151Z,24.43
2018-07-02T18:57:51.706Z,24.19
2018-07-02T19:00:20.592Z,24.51
2018-07-02T19:02:48.895Z,24.44
2018-07-02T19:05:17.561Z,24.55
2018-07-02T19:07:46.956Z,24.37
2018-07-02T19:10:15.940Z,24.31
2018-07-02T19:12:45.215Z,24.24
2018-07-02T19:15:14.086Z,24.37
2018-07-02T19:17:42.458Z,24.36
2018-07-02T19:20:11.191Z,24.33
2018-07-02T19:22:39.856Z,23.98
2018-07-02T19:25:09.112Z,24.12
2018-07-02T19:27:37.338Z,24.15
2018-07-02T19:30:05.634Z,24.09
2018-07-02T19:32:33.877Z,24.17
2018-07-02T19:35:02.091Z,23.94
2018-07-02T19:37:30.436Z,24.02
2018-07-02T19:39:58.647Z,23.89
2018-07-02T19:42:26.846Z,24.00
2018-07-02T19:44:55.045Z,23.92
2018-07-02T19:47:23.278Z,23.43
2018-07-02T19:49:51.497Z,23.18
2018-07-02T19:52:19.775Z,23.16
2018-07-02T19:54:48.021Z,23.21
2018-07-02T19:57:16.335Z,23.12
2018-07-02T19:59:44.938Z,23.16
2018-07-02T20:02:13.171Z,23.19
2018-07-02T20:04:41.408Z,23.00
2018-07-02T20:07:09.774Z,22.83
2018-07-02T20:09:38.905Z,23.08
2018-07-02T20:12:07.256Z,23.02
2018-07-02T20:14:35.473Z,22.66
2018-07-02T20:17:03.770Z,23.07
2018-07-02T20:19:31.979Z,23.10
2018-07-02T20:22:00.229Z,23.14
2018-07-02T20:24:28.480Z,22.96
2018-07-02T20:26:56.773Z,22.81
2018-07-02T20:29:25.022Z,22.90
2018-07-02T20:31:53.214Z,22.75
2018-07-02T20:34:21.516Z,22.70
2018-07-02T20:36:49.801Z,22.56
2018-07-02T20:39:18.241Z,22.84
2018-07-02T20:41:46.619Z,22.82
2018-07-02T20:44:14.861Z,22.54
2018-07-02T20:46:43.139Z,22.51
2018-07-02T20:49:11.383Z,22.35
2018-07-02T20:51:39.602Z,22.51
2018-07-02T20:54:08.008Z,22.28
2018-07-02T20:56:36.282Z,22.15
2018-07-02T20:59:04.546Z,22.12
2018-07-02T21:01:32.991Z,22.47
2018-07-02T21:04:01.464Z,21.84
2018-07-02T21:06:29.681Z,21.43
2018-07-02T21:08:58.344Z,21.55
2018-07-02T21:11:26.615Z,21.41
2018-07-02T21:13:54.836Z,21.59
2018-07-02T21:16:23.036Z,21.77
2018-07-02T21:18:51.207Z,21.66
2018-07-02T21:21:19.458Z,21.81
2018-07-02T21:23:47.748Z,21.65
2018-07-02T21:26:16.045Z,21.36
2018-07-02T21:28:44.404Z,21.70
2018-07-02T21:31:12.647Z,21.68
2018-07-02T21:33:40.899Z,21.52
2018-07-02T21:36:09.187Z,21.66
2018-07-02T21:38:37.404Z,21.44
2018-07-02T21:41:05.596Z,21.43
2018-07-02T21:43:33.878Z,21.15
2018-07-02T21:46:02.141Z,21.45
2018-07-02T21:48:30.512Z,21.49
2018-07-02T21:50:58.691Z,21.50
2018-07-02T21:53:27.030Z,21.13
2018-07-02T21:55:55.242Z,21.48
2018-07-02T21:58:23.453Z,21.28
2018-07-02T22:00:51.661Z,21.38
2018-07-02T22:03:19.892Z,21.34
2018-07-02T22:05:48.124Z,21.36
2018-07-02T22:08:16.328Z,21.39
2018-07-02T22:10:44.572Z,21.38
2018-07-02T22:13:12.828Z,21.19
2018-07-02T22:15:43.554Z,21.08
2018-07-02T22:18:11.748Z,21.17
2018-07-02T22:20:39.981Z,21.02
2018-07-02T22:23:08.200Z,20.89
2018-07-02T22:25:36.818Z,21.14
2018-07-02T22:28:05.323Z,20.65
2018-07-02T22:30:34.260Z,20.84
2018-07-02T22:33:02.662Z,20.92
2018-07-02T22:35:30.849Z,20.84
2018-07-02T22:37:59.026Z,20.70
2018-07-02T22:40:27.262Z,20.74
2018-07-02T22:42:55.529Z,20.84
2018-07-02T22:45:23.758Z,20.79
2018-07-02T22:47:51.981Z,20.47
2018-07-02T22:50:20.281Z,20.32
2018-07-02T22:52:48.514Z,20.37
2018-07-02T22:55:16.749Z,20.42
2018-07-02T22:57:44.962Z,20.46
2018-07-02T23:00:13.246Z,20.47
2018-07-02T23:02:41.462Z,20.48
2018-07-02T23:05:09.779Z,20.30
2018-07-02T23:07:38.084Z,20.51
2018-07-02T23:10:06.388Z,20.52
2018-07-02T23:12:34.653Z,20.44
2018-07-02T23:15:02.866Z,20.01
2018-07-02T23:17:31.044Z,19.75
2018-07-02T23:19:59.235Z,19.43
2018-07-02T23:22:33.938Z,19.26
2018-07-02T23:25:02.110Z,19.18
2018-07-02T23:27:30.285Z,19.30
2018-07-02T23:29:58.492Z,19.06
2018-07-02T23:32:26.650Z,18.99
2018-07-02T23:34:54.900Z,19.19
2018-07-02T23:37:23.088Z,18.86
2018-07-02T23:39:51.311Z,18.95
2018-07-02T23:42:19.525Z,18.75
2018-07-02T23:44:47.762Z,18.55
2018-07-02T23:47:15.972Z,18.53
2018-07-02T23:49:44.234Z,18.67
2018-07-02T23:52:12.482Z,18.26
2018-07-02T23:54:40.692Z,18.29
2018-07-02T23:57:09.467Z,18.39
2018-07-02T23:59:37.661Z,18.27
